Time;durP1;ratioP1;P1;durP2;ratioP2;P2;SDS_P1;SDS_P2;PMS_P1;PMS_P2;Temp;Humidity;BMP_temperature;BMP_pressure;BME280_temperature;BME280_humidity;BME280_pressure;Samples;Min_cycle;Max_cycle;Signal;HPM_P1;HPM_P2
2023/12/02 00:02:28;;;;;;;6.70;3.08;;;;;;;;;;1924683;74;21078;-44
2023/12/02 00:04:57;;;;;;;4.72;2.37;;;;;;;;;;1924631;74;21074;-43
2023/12/02 00:07:25;;;;;;;4.85;2.35;;;;;;;;;;1924664;74;21031;-44
2023/12/02 00:09:54;;;;;;;9.13;3.27;;;;;;;;;;1924683;74;21027;-44
2023/12/02 00:12:23;;;;;;;8.30;3.17;;;;;;;;;;1924682;74;21168;-44
2023/12/02 00:14:51;;;;;;;6.58;2.65;;;;;;;;;;1924673;74;21098;-44
2023/12/02 00:17:20;;;;;;;9.25;3.67;;;;;;;;;;1916328;74;21047;-44
2023/12/02 00:19:49;;;;;;;8.33;2.52;;;;;;;;;;1905249;75;21028;-44
2023/12/02 00:22:18;;;;;;;4.33;2.52;;;;;;;;;;1905255;75;21090;-44
2023/12/02 00:24:47;;;;;;;5.60;2.90;;;;;;;;;;1905236;74;21136;-44
2023/12/02 00:27:16;;;;;;;4.17;3.25;;;;;;;;;;1905265;75;21008;-44
2023/12/02 00:29:45;;;;;;;7.28;2.50;;;;;;;;;;1905341;75;21016;-44
2023/12/02 00:32:14;;;;;;;9.25;3.00;;;;;;;;;;1905303;75;21023;-44
2023/12/02 00:34:42;;;;;;;8.88;3.02;;;;;;;;;;1905267;75;21023;-44
2023/12/02 00:37:11;;;;;;;4.53;2.08;;;;;;;;;;1905300;75;21023;-46
2023/12/02 00:39:40;;;;;;;6.80;2.30;;;;;;;;;;1905235;75;21122;-46
2023/12/02 00:42:09;;;;;;;2.50;2.25;;;;;;;;;;1905250;75;21004;-47
2023/12/02 00:44:37;;;;;;;6.30;2.33;;;;;;;;;;1905229;75;21016;-46
2023/12/02 00:47:06;;;;;;;3.70;2.10;;;;;;;;;;1905320;75;21093;-46
2023/12/02 00:49:35;;;;;;;3.55;2.62;;;;;;;;;;1905237;75;21087;-47
2023/12/02 00:52:04;;;;;;;4.55;2.75;;;;;;;;;;1905253;75;21031;-46
2023/12/02 00:54:34;;;;;;;5.67;2.10;;;;;;;;;;1905267;75;21008;-44
2023/12/02 00:57:02;;;;;;;4.00;2.37;;;;;;;;;;1905395;75;21450;-44
2023/12/02 00:59:31;;;;;;;3.35;2.20;;;;;;;;;;1905285;75;20991;-45
2023/12/02 01:01:59;;;;;;;7.37;3.22;;;;;;;;;;1905439;75;21085;-44
2023/12/02 01:04:28;;;;;;;4.87;2.05;;;;;;;;;;1905257;75;21027;-44
2023/12/02 01:06:56;;;;;;;6.40;3.15;;;;;;;;;;1905418;75;21035;-45
2023/12/02 01:09:25;;;;;;;7.03;2.45;;;;;;;;;;1905284;75;21028;-45
2023/12/02 01:11:54;;;;;;;6.83;2.60;;;;;;;;;;1905317;75;21043;-44
2023/12/02 01:14:24;;;;;;;5.08;2.75;;;;;;;;;;1905380;75;21069;-44
2023/12/02 01:16:53;;;;;;;3.42;2.45;;;;;;;;;;1905417;74;21007;-44
2023/12/02 01:19:22;;;;;;;4.50;1.80;;;;;;;;;;1905319;75;21015;-44
2023/12/02 01:21:50;;;;;;;3.67;2.15;;;;;;;;;;1905473;74;21016;-44
2023/12/02 01:24:19;;;;;;;3.47;2.40;;;;;;;;;;1905428;75;21011;-44
2023/12/02 01:26:47;;;;;;;4.10;2.10;;;;;;;;;;1905349;75;21016;-44
2023/12/02 01:29:16;;;;;;;5.67;2.62;;;;;;;;;;1905372;75;21031;-44
2023/12/02 01:31:46;;;;;;;6.67;2.47;;;;;;;;;;1905416;75;20991;-44
2023/12/02 01:34:15;;;;;;;3.33;2.30;;;16.00;90.50;;;;;;1905309;75;21012;-45
2023/12/02 01:36:46;;;;;;;5.55;2.60;;;15.90;90.80;;;;;;1905343;75;21023;-44
2023/12/02 01:39:15;;;;;;;3.37;2.35;;;15.70;91.20;;;;;;1905369;75;20996;-44
2023/12/02 01:41:44;;;;;;;3.83;2.47;;;15.60;91.20;;;;;;1905378;75;21035;-44
2023/12/02 01:44:13;;;;;;;3.20;2.33;;;15.50;91.20;;;;;;1905257;75;21136;-44
2023/12/02 01:46:42;;;;;;;3.83;2.35;;;15.50;91.10;;;;;;1905346;75;21004;-44
2023/12/02 01:49:12;;;;;;;4.87;2.60;;;15.50;91.10;;;;;;1905318;75;21078;-45
2023/12/02 01:51:41;;;;;;;2.45;1.92;;;15.50;91.20;;;;;;1905345;75;20979;-45
2023/12/02 01:54:11;;;;;;;2.83;2.17;;;15.50;91.00;;;;;;1905401;75;21024;-44
2023/12/02 01:56:41;;;;;;;2.67;2.30;;;15.60;91.00;;;;;;1905456;75;21003;-45
2023/12/02 01:59:13;;;;;;;4.12;2.00;;;15.50;91.00;;;;;;1904197;74;21088;-44
2023/12/02 02:01:42;;;;;;;2.95;1.70;;;15.50;91.20;;;;;;1905356;75;20999;-45
2023/12/02 02:04:11;;;;;;;4.30;2.15;;;15.50;91.00;;;;;;1905151;75;21012;-44
2023/12/02 02:06:41;;;;;;;4.50;2.25;;;15.50;91.00;;;;;;1905210;75;21476;-45
2023/12/02 02:09:10;;;;;;;3.45;2.27;;;15.50;91.00;;;;;;1905184;75;20995;-44
2023/12/02 02:11:39;;;;;;;2.90;1.75;;;15.50;90.60;;;;;;1905272;74;21004;-44
2023/12/02 02:14:08;;;;;;;3.77;2.00;;;15.50;90.10;;;;;;1905329;75;21059;-44
2023/12/02 02:16:38;;;;;;;4.12;2.33;;;15.60;90.50;;;;;;1905236;75;21070;-44
2023/12/02 02:19:08;;;;;;;4.78;1.90;;;15.60;90.40;;;;;;1918384;74;21043;-44
2023/12/02 02:21:38;;;;;;;4.72;2.52;;;15.60;90.30;;;;;;1924611;74;21069;-45
2023/12/02 02:24:07;;;;;;;2.30;1.37;;;15.60;90.30;;;;;;1924530;74;20991;-45
2023/12/02 02:26:36;;;;;;;2.62;1.70;;;15.60;88.90;;;;;;1924584;74;21014;-44
2023/12/02 02:29:05;;;;;;;5.80;2.22;;;15.60;89.40;;;;;;1924732;74;21018;-45
2023/12/02 02:31:35;;;;;;;8.88;2.42;;;15.70;89.90;;;;;;1924611;74;21022;-44
2023/12/02 02:34:04;;;;;;;2.42;2.20;;;15.70;89.20;;;;;;1924594;74;21057;-45
2023/12/02 02:36:33;;;;;;;3.00;1.80;;;15.80;88.20;;;;;;1924562;74;21104;-45
2023/12/02 02:39:02;;;;;;;3.70;2.12;;;15.80;88.60;;;;;;1924592;74;21010;-44
2023/12/02 02:41:32;;;;;;;2.47;1.47;;;15.90;88.90;;;;;;1924602;74;21056;-44
2023/12/02 02:44:01;;;;;;;3.67;1.67;;;15.90;87.80;;;;;;1924529;74;21014;-44
2023/12/02 02:46:30;;;;;;;5.37;1.95;;;15.90;87.70;;;;;;1924567;74;21054;-44
2023/12/02 02:49:00;;;;;;;3.92;1.70;;;15.90;88.00;;;;;;1924540;74;21164;-44
2023/12/02 02:51:29;;;;;;;7.35;3.12;;;15.90;88.00;;;;;;1924592;74;21014;-44
2023/12/02 02:53:58;;;;;;;6.70;2.00;;;15.90;88.10;;;;;;1924733;74;21018;-45
2023/12/02 02:56:27;;;;;;;3.80;1.50;;;15.80;88.30;;;;;;1924593;74;21076;-44
2023/12/02 02:58:57;;;;;;;2.58;1.87;;;15.70;88.60;;;;;;1924581;74;21015;-44
2023/12/02 03:01:26;;;;;;;3.30;2.10;;;15.70;88.80;;;;;;1924537;74;21096;-44
2023/12/02 03:03:54;;;;;;;3.30;1.95;;;15.60;88.60;;;;;;1924549;74;21426;-44
2023/12/02 03:06:25;;;;;;;5.90;2.10;;;15.60;88.90;;;;;;1924554;74;21102;-45
2023/12/02 03:08:54;;;;;;;6.22;1.90;;;15.50;88.30;;;;;;1924587;74;21089;-44
2023/12/02 03:11:23;;;;;;;3.05;1.90;;;15.50;89.00;;;;;;1924540;74;21015;-44
2023/12/02 03:13:52;;;;;;;2.08;1.50;;;15.50;89.20;;;;;;1924602;74;21023;-44
2023/12/02 03:16:21;;;;;;;3.85;2.20;;;15.50;88.90;;;;;;1924531;74;21003;-44
2023/12/02 03:18:50;;;;;;;5.70;2.00;;;15.40;89.40;;;;;;1919068;74;21027;-44
2023/12/02 03:21:19;;;;;;;3.62;2.08;;;15.40;89.80;;;;;;1905295;74;21015;-44
2023/12/02 03:23:50;;;;;;;7.12;2.90;;;15.40;90.10;;;;;;1905271;75;21079;-44
2023/12/02 03:26:19;;;;;;;7.10;2.62;;;15.40;90.20;;;;;;1905287;75;21058;-45
2023/12/02 03:28:48;;;;;;;7.62;2.33;;;15.30;90.30;;;;;;1905268;75;21081;-44
2023/12/02 03:31:17;;;;;;;5.05;2.70;;;15.20;90.50;;;;;;1905313;75;21008;-43
2023/12/02 03:33:46;;;;;;;5.08;3.02;;;15.20;90.70;;;;;;1905299;75;20995;-44
2023/12/02 03:36:15;;;;;;;5.60;2.45;;;15.20;90.90;;;;;;1905340;74;21015;-44
2023/12/02 03:38:44;;;;;;;8.50;3.33;;;15.10;90.90;;;;;;1905289;75;21035;-45
2023/12/02 03:41:13;;;;;;;6.65;3.85;;;15.10;91.20;;;;;;1905281;75;21496;-45
2023/12/02 03:43:43;;;;;;;4.70;3.08;;;15.00;91.30;;;;;;1905235;75;21023;-44
2023/12/02 03:46:12;;;;;;;6.30;3.60;;;15.00;91.40;;;;;;1905322;75;21075;-45
2023/12/02 03:48:41;;;;;;;5.05;3.35;;;14.90;91.50;;;;;;1905371;75;20996;-44
2023/12/02 03:51:10;;;;;;;7.62;3.00;;;14.90;91.60;;;;;;1905478;75;21015;-44
2023/12/02 03:53:40;;;;;;;6.53;3.42;;;14.90;91.70;;;;;;1905328;74;21047;-44
2023/12/02 03:56:10;;;;;;;5.95;2.83;;;14.80;91.80;;;;;;1905430;75;21047;-44
2023/12/02 03:58:39;;;;;;;5.72;3.33;;;14.80;91.80;;;;;;1905368;75;21112;-43
2023/12/02 04:01:08;;;;;;;4.10;2.95;;;14.80;92.00;;;;;;1905370;75;21066;-44
2023/12/02 04:03:37;;;;;;;3.75;2.67;;;14.80;92.10;;;;;;1905316;75;21431;-43
2023/12/02 04:06:07;;;;;;;6.10;2.60;;;14.80;92.30;;;;;;1905326;75;21031;-44
2023/12/02 04:08:37;;;;;;;5.75;2.65;;;14.80;92.40;;;;;;1905403;75;21438;-44
2023/12/02 04:11:07;;;;;;;5.50;3.17;;;14.90;92.60;;;;;;1905370;75;21447;-44
2023/12/02 04:13:36;;;;;;;7.75;4.03;;;14.90;92.50;;;;;;1905378;74;21019;-44
2023/12/02 04:16:06;;;;;;;6.92;2.58;;;14.90;92.60;;;;;;1905342;75;21035;-44
2023/12/02 04:18:35;;;;;;;5.37;2.70;;;14.90;92.70;;;;;;1905370;75;21000;-44
2023/12/02 04:21:08;;;;;;;12.05;3.27;;;14.90;92.80;;;;;;1923319;74;21039;-44
2023/12/02 04:23:37;;;;;;;12.03;3.05;;;14.90;92.90;;;;;;1924705;74;20975;-44
2023/12/02 04:26:07;;;;;;;6.90;2.62;;;14.80;93.00;;;;;;1924712;74;21078;-44
2023/12/02 04:28:37;;;;;;;10.15;3.67;;;14.90;93.10;;;;;;1924699;74;21060;-44
2023/12/02 04:31:07;;;;;;;9.45;3.20;;;14.80;93.20;;;;;;1924700;74;20987;-44
2023/12/02 04:33:36;;;;;;;11.75;5.55;;;14.80;93.20;;;;;;1924726;74;21011;-44
2023/12/02 04:36:08;;;;;;;6.47;2.80;;;14.80;93.20;;;;;;1924847;74;21088;-44
2023/12/02 04:38:36;;;;;;;5.90;2.60;;;14.80;93.40;;;;;;1924734;74;21521;-44
2023/12/02 04:41:06;;;;;;;7.10;3.35;;;14.80;93.30;;;;;;1924863;74;21155;-44
2023/12/02 04:43:35;;;;;;;6.78;2.98;;;14.80;93.60;;;;;;1924730;74;21078;-44
2023/12/02 04:46:06;;;;;;;5.85;3.45;;;14.80;93.60;;;;;;1924771;74;21096;-44
2023/12/02 04:48:35;;;;;;;4.67;2.87;;;14.80;93.70;;;;;;1924774;74;20975;-44
2023/12/02 04:51:04;;;;;;;5.80;3.20;;;14.80;93.80;;;;;;1924711;74;21094;-44
2023/12/02 04:53:34;;;;;;;6.45;3.10;;;14.80;93.80;;;;;;1924732;74;21078;-44
2023/12/02 04:56:03;;;;;;;5.03;2.25;;;14.80;93.90;;;;;;1924659;74;21062;-44
2023/12/02 04:58:32;;;;;;;10.28;3.40;;;14.80;93.90;;;;;;1924821;74;21164;-44
2023/12/02 05:01:01;;;;;;;8.15;3.27;;;14.80;93.90;;;;;;1924726;74;21148;-44
2023/12/02 05:03:32;;;;;;;11.35;3.10;;;14.80;93.90;;;;;;1924656;74;21245;-44
2023/12/02 05:06:01;;;;;;;8.95;2.47;;;14.80;94.00;;;;;;1924627;74;20999;-44
2023/12/02 05:08:31;;;;;;;2.60;2.35;;;14.80;94.10;;;;;;1924558;74;21093;-44
2023/12/02 05:11:00;;;;;;;5.53;2.62;;;14.80;94.20;;;;;;1924645;74;21077;-44
2023/12/02 05:13:29;;;;;;;5.83;3.25;;;14.80;94.20;;;;;;1924629;74;21120;-44
2023/12/02 05:15:58;;;;;;;6.37;2.52;;;14.80;94.30;;;;;;1924640;74;21027;-44
2023/12/02 05:18:27;;;;;;;3.42;2.67;;;14.80;94.40;;;;;;1924570;74;21129;-45
2023/12/02 05:20:56;;;;;;;12.85;4.83;;;14.80;94.50;;;;;;1924728;74;21167;-44
2023/12/02 05:23:26;;;;;;;9.08;3.80;;;14.80;94.60;;;;;;1924623;74;21457;-44
2023/12/02 05:25:55;;;;;;;6.30;2.65;;;14.80;94.70;;;;;;1924677;74;21054;-44
2023/12/02 05:28:24;;;;;;;6.05;2.95;;;14.80;94.90;;;;;;1924576;74;21130;-45
2023/12/02 05:30:53;;;;;;;8.10;3.42;;;14.80;95.00;;;;;;1924582;74;21145;-44
2023/12/02 05:33:23;;;;;;;12.73;3.52;;;14.80;95.00;;;;;;1924586;74;21192;-45
2023/12/02 05:35:52;;;;;;;3.17;2.33;;;14.80;95.00;;;;;;1924735;74;21243;-44
2023/12/02 05:38:21;;;;;;;4.90;3.08;;;14.90;95.10;;;;;;1924652;74;21070;-47
2023/12/02 05:40:51;;;;;;;8.65;3.08;;;14.90;95.00;;;;;;1924607;74;21438;-46
2023/12/02 05:43:20;;;;;;;4.75;2.42;;;14.90;95.00;;;;;;1924653;74;21118;-47
2023/12/02 05:45:49;;;;;;;5.72;2.33;;;14.90;95.20;;;;;;1924624;74;21090;-45
2023/12/02 05:48:18;;;;;;;7.22;2.87;;;14.90;95.30;;;;;;1924501;74;21303;-47
2023/12/02 05:50:47;;;;;;;8.78;3.00;;;15.00;95.20;;;;;;1924710;74;21175;-44
2023/12/02 05:53:17;;;;;;;3.02;2.62;;;15.00;95.20;;;;;;1924568;74;21120;-44
2023/12/02 05:55:46;;;;;;;3.30;2.40;;;15.10;95.40;;;;;;1924494;74;21030;-45
2023/12/02 05:58:15;;;;;;;9.33;3.80;;;15.10;95.10;;;;;;1924498;74;21038;-45
2023/12/02 06:00:44;;;;;;;3.50;2.80;;;15.20;95.10;;;;;;1924464;74;21109;-44
2023/12/02 06:03:13;;;;;;;7.70;3.27;;;15.20;95.20;;;;;;1924411;74;21365;-45
2023/12/02 06:05:42;;;;;;;8.73;3.30;;;15.30;95.10;;;;;;1924488;74;21082;-44
2023/12/02 06:08:12;;;;;;;10.78;3.47;;;15.30;95.00;;;;;;1924507;74;21022;-44
2023/12/02 06:10:41;;;;;;;8.28;3.33;;;15.30;95.10;;;;;;1924561;74;21027;-44
2023/12/02 06:13:10;;;;;;;6.85;2.60;;;15.30;95.00;;;;;;1924502;74;21148;-45
2023/12/02 06:15:39;;;;;;;4.92;3.30;;;15.40;95.10;;;;;;1924510;74;21180;-46
2023/12/02 06:18:08;;;;;;;7.22;3.17;;;15.40;95.00;;;;;;1924575;74;21003;-45
2023/12/02 06:20:37;;;;;;;10.80;3.77;;;15.40;95.00;;;;;;1920694;74;21055;-46
2023/12/02 06:23:07;;;;;;;8.38;3.10;;;15.40;95.00;;;;;;1905279;75;21051;-44
2023/12/02 06:25:36;;;;;;;6.55;3.37;;;15.40;95.00;;;;;;1905143;75;21102;-44
2023/12/02 06:28:06;;;;;;;6.75;4.00;;;15.50;95.10;;;;;;1905126;75;21150;-45
2023/12/02 06:30:35;;;;;;;1.70;1.52;;;15.50;95.20;;;;;;1905190;75;21015;-44
2023/12/02 06:33:04;;;;;;;12.60;2.87;;;15.50;95.30;;;;;;1905166;75;21212;-45
2023/12/02 06:35:34;;;;;;;12.18;3.92;;;15.50;95.30;;;;;;1905153;75;21193;-45
2023/12/02 06:38:03;;;;;;;3.80;1.65;;;15.60;95.30;;;;;;1905108;75;21367;-46
2023/12/02 06:40:32;;;;;;;9.08;3.62;;;15.50;95.50;;;;;;1905179;75;21070;-44
2023/12/02 06:43:01;;;;;;;6.45;2.77;;;15.50;95.30;;;;;;1905191;75;21016;-44
2023/12/02 06:45:31;;;;;;;7.90;3.55;;;15.60;95.40;;;;;;1905259;75;21058;-46
2023/12/02 06:48:01;;;;;;;8.78;3.62;;;15.60;95.50;;;;;;1905124;75;21186;-44
2023/12/02 06:50:30;;;;;;;4.28;2.45;;;15.60;95.50;;;;;;1905219;74;21166;-45
2023/12/02 06:52:59;;;;;;;5.62;3.45;;;15.70;95.50;;;;;;1905183;75;21032;-45
2023/12/02 06:55:31;;;;;;;13.43;3.22;;;15.70;95.40;;;;;;1905231;75;21134;-44
2023/12/02 06:58:03;;;;;;;4.72;3.37;;;;;;;;;;1905308;75;21079;-44
2023/12/02 07:00:31;;;;;;;14.53;3.83;;;;;;;;;;1905288;75;21242;-44
2023/12/02 07:03:00;;;;;;;9.03;3.92;;;;;;;;;;1905222;75;21256;-44
2023/12/02 07:05:29;;;;;;;11.80;3.80;;;;;;;;;;1905247;75;21031;-44
2023/12/02 07:07:57;;;;;;;7.35;3.05;;;;;;;;;;1905262;75;21027;-45
2023/12/02 07:10:26;;;;;;;5.45;3.87;;;;;;;;;;1905272;75;21210;-45
2023/12/02 07:12:55;;;;;;;5.30;3.30;;;;;;;;;;1905262;75;21035;-44
2023/12/02 07:15:23;;;;;;;7.75;4.05;;;;;;;;;;1905351;75;21079;-44
2023/12/02 07:17:52;;;;;;;6.90;2.92;;;;;;;;;;1905242;75;21031;-44
2023/12/02 07:20:21;;;;;;;8.23;3.62;;;;;;;;;;1905263;75;21165;-44
2023/12/02 07:22:50;;;;;;;8.40;2.90;;;;;;;;;;1922250;74;21170;-44
2023/12/02 07:25:18;;;;;;;6.60;3.10;;;;;;;;;;1924585;74;21516;-43
2023/12/02 07:27:47;;;;;;;12.05;3.95;;;;;;;;;;1924678;74;21023;-44
2023/12/02 07:30:16;;;;;;;3.60;2.70;;;;;;;;;;1924637;74;21023;-44
2023/12/02 07:32:46;;;;;;;7.92;2.92;;;;;;;;;;1924730;74;21326;-44
2023/12/02 07:35:14;;;;;;;12.05;3.20;;;;;;;;;;1924751;74;21018;-44
2023/12/02 07:37:47;;;;;;;6.75;3.17;;;;;;;;;;1924657;74;21144;-44
2023/12/02 07:40:14;;;;;;;4.97;3.47;;;;;;;;;;1924437;74;21229;-44
2023/12/02 07:42:42;;;;;;;13.00;5.92;;;;;;;;;;1924579;74;21149;-44
2023/12/02 07:45:11;;;;;;;8.18;3.52;;;;;;;;;;1924556;74;21241;-45
2023/12/02 07:47:40;;;;;;;5.65;3.90;;;;;;;;;;1924457;74;21295;-46
2023/12/02 07:50:09;;;;;;;7.35;3.77;;;;;;;;;;1924690;74;21156;-45
2023/12/02 07:52:37;;;;;;;5.70;3.00;;;;;;;;;;1924609;74;21142;-44
2023/12/02 07:55:06;;;;;;;4.53;2.10;;;;;;;;;;1924662;74;21116;-44
2023/12/02 07:57:35;;;;;;;2.50;2.30;;;;;;;;;;1924649;74;21093;-44
2023/12/02 08:00:04;;;;;;;7.78;3.30;;;;;;;;;;1924653;74;21152;-44
2023/12/02 08:02:34;;;;;;;7.62;3.33;;;;;;;;;;1923770;74;21119;-44
2023/12/02 08:05:02;;;;;;;6.72;3.12;;;;;;;;;;1924573;74;21152;-46
2023/12/02 08:07:31;;;;;;;3.42;2.95;;;;;;;;;;1924649;74;21035;-45
2023/12/02 08:10:00;;;;;;;5.03;2.70;;;;;;;;;;1924658;74;21147;-44
2023/12/02 08:12:28;;;;;;;8.63;3.02;;;;;;;;;;1924616;74;21018;-44
2023/12/02 08:14:57;;;;;;;12.15;3.02;;;;;;;;;;1924807;74;20995;-44
2023/12/02 08:17:26;;;;;;;12.90;4.45;;;;;;;;;;1924605;74;21027;-44
2023/12/02 08:19:55;;;;;;;6.20;3.75;;;;;;;;;;1924766;74;21080;-44
2023/12/02 08:22:24;;;;;;;9.25;3.02;;;;;;;;;;1915315;74;21051;-44
2023/12/02 08:24:53;;;;;;;8.30;3.70;;;;;;;;;;1905165;75;21020;-43
2023/12/02 08:27:22;;;;;;;9.25;4.87;;;;;;;;;;1905146;75;21032;-43
2023/12/02 08:29:50;;;;;;;12.45;3.55;;;;;;;;;;1905307;75;21071;-44
2023/12/02 08:32:19;;;;;;;6.70;3.83;;;;;;;;;;1905228;75;21035;-46
2023/12/02 08:34:48;;;;;;;7.15;2.90;;;;;;;;;;1905328;75;21145;-43
2023/12/02 08:37:17;;;;;;;8.03;3.58;;;;;;;;;;1905161;74;21065;-44
2023/12/02 08:39:45;;;;;;;9.38;3.83;;;;;;;;;;1905360;75;21024;-46
2023/12/02 08:42:14;;;;;;;5.75;3.40;;;;;;;;;;1905202;75;21090;-43
2023/12/02 08:44:43;;;;;;;8.23;3.77;;;;;;;;;;1905193;74;21040;-44
2023/12/02 08:47:12;;;;;;;8.93;4.00;;;;;;;;;;1905321;75;21023;-46
2023/12/02 08:49:40;;;;;;;6.58;3.22;;;;;;;;;;1905287;75;21079;-46
2023/12/02 08:52:09;;;;;;;8.93;3.98;;;;;;;;;;1905209;75;21058;-44
2023/12/02 08:54:37;;;;;;;3.05;2.50;;;;;;;;;;1905249;75;21067;-45
2023/12/02 08:57:05;;;;;;;13.40;3.87;;;;;;;;;;1905201;75;21109;-44
2023/12/02 08:59:34;;;;;;;8.35;3.27;;;;;;;;;;1905286;75;21031;-44
2023/12/02 09:02:05;;;;;;;9.20;2.90;;;;;;;;;;1905326;75;21098;-44
2023/12/02 09:04:33;;;;;;;12.35;3.12;;;;;;;;;;1905179;75;21442;-44
2023/12/02 09:07:02;;;;;;;5.35;3.30;;;;;;;;;;1905171;75;21032;-46
2023/12/02 09:09:30;;;;;;;8.38;4.50;;;;;;;;;;1905180;75;21059;-45
2023/12/02 09:11:59;;;;;;;8.85;3.20;;;;;;;;;;1905156;75;21063;-43
2023/12/02 09:14:27;;;;;;;11.83;4.17;;;;;;;;;;1905058;75;21008;-44
2023/12/02 09:16:57;;;;;;;12.65;3.62;;;;;;;;;;1905147;75;21048;-44
2023/12/02 09:19:32;;;;;;;5.17;3.02;;;;;;;;;;1905169;75;21097;-46
2023/12/02 09:22:01;;;;;;;8.98;3.65;;;;;;;;;;1907640;74;21020;-44
2023/12/02 09:24:42;;;;;;;8.23;3.35;;;;;;;;;;1924619;74;21043;-44
2023/12/02 09:27:09;;;;;;;8.00;3.22;;;;;;;;;;1924847;74;21453;-45
2023/12/02 09:29:41;;;;;;;7.72;2.92;;;;;;;;;;1924628;74;21100;-43
2023/12/02 09:32:11;;;;;;;5.97;2.83;;;;;;;;;;1924744;74;21092;-43
2023/12/02 09:34:43;;;;;;;11.05;3.50;;;;;;;;;;1924629;74;20995;-44
2023/12/02 09:37:16;;;;;;;5.28;3.40;;;;;;;;;;1924688;74;21090;-43
2023/12/02 09:39:46;;;;;;;4.55;3.12;;;;;;;;;;1921711;74;20986;-44
2023/12/02 09:42:16;;;;;;;6.03;3.47;;;;;;;;;;1924618;74;21010;-44
2023/12/02 09:44:45;;;;;;;5.70;3.00;;;;;;;;;;1924643;74;21007;-44
2023/12/02 09:47:17;;;;;;;4.55;3.00;;;;;;;;;;1924587;74;21002;-44
2023/12/02 09:49:47;;;;;;;7.55;3.35;;;;;;;;;;1924614;74;21120;-43
2023/12/02 09:52:19;;;;;;;7.40;3.02;;;;;;;;;;1924620;74;21014;-44
2023/12/02 09:54:49;;;;;;;11.28;2.83;;;;;;;;;;1923435;74;21010;-44
2023/12/02 09:57:19;;;;;;;9.60;3.40;;;;;;;;;;1924686;74;21073;-43
2023/12/02 09:59:55;;;;;;;8.00;2.77;;;;;;;;;;1924227;74;21011;-44
2023/12/02 10:02:31;;;;;;;8.83;3.00;;;;;;;;;;1924609;74;21042;-43
2023/12/02 10:05:01;;;;;;;5.03;2.20;;;;;;;;;;1923465;74;21080;-44
2023/12/02 10:07:38;;;;;;;7.87;2.50;;;;;;;;;;1923678;74;21315;-46
2023/12/02 10:10:10;;;;;;;8.10;3.45;;;;;;;;;;1924584;74;21085;-45
2023/12/02 10:12:59;;;;;;;4.08;2.62;;;;;;;;;;1924552;74;21421;-44
2023/12/02 10:15:29;;;;;;;3.87;2.20;;;;;;;;;;1924532;74;21031;-46
2023/12/02 10:17:59;;;;;;;2.77;2.30;;;;;;;;;;1924542;74;21014;-47
2023/12/02 10:20:28;;;;;;;9.95;3.60;;;;;;;;;;1924714;74;21031;-46
2023/12/02 10:23:01;;;;;;;6.80;3.15;;;;;;;;;;1924572;74;21027;-47
2023/12/02 10:25:43;;;;;;;8.23;3.10;;;;;;;;;;1924394;74;20995;-45
2023/12/02 10:28:22;;;;;;;7.20;3.60;;;;;;;;;;1924520;74;21080;-48
2023/12/02 10:30:51;;;;;;;9.33;3.25;;;;;;;;;;1924148;74;21086;-46
2023/12/02 10:33:27;;;;;;;6.45;3.47;;;;;;;;;;1924856;74;21046;-45
2023/12/02 10:35:57;;;;;;;3.25;2.10;;;;;;;;;;1924650;74;21006;-45
2023/12/02 10:38:44;;;;;;;6.00;3.65;;;;;;;;;;1924707;74;21034;-45
2023/12/02 10:41:29;;;;;;;8.10;3.60;;;;;;;;;;1924590;74;21011;-46
2023/12/02 10:43:58;;;;;;;7.58;3.55;;;;;;;;;;1924747;74;21011;-45
2023/12/02 10:46:27;;;;;;;7.37;3.08;;;;;;;;;;1924535;74;20999;-45
2023/12/02 10:48:56;;;;;;;4.92;2.17;;;;;;;;;;1924543;74;21064;-45
2023/12/02 10:51:27;;;;;;;6.25;3.30;;;;;;;;;;1924580;74;21044;-45
2023/12/02 10:53:56;;;;;;;6.37;3.20;;;;;;;;;;1924577;74;21007;-46
2023/12/02 10:56:27;;;;;;;8.55;3.75;;;;;;;;;;1924595;74;21043;-45
2023/12/02 10:58:55;;;;;;;8.98;3.75;;;;;;;;;;1924588;74;20983;-45
2023/12/02 11:01:26;;;;;;;9.23;3.00;;;;;;;;;;1924751;74;20999;-45
2023/12/02 11:03:59;;;;;;;11.95;3.50;;;;;;;;;;1924645;74;21007;-44
2023/12/02 11:06:38;;;;;;;8.18;3.33;;;;;;;;;;1924450;74;21047;-45
2023/12/02 11:09:16;;;;;;;6.55;3.87;;;;;;;;;;1924675;74;21011;-44
2023/12/02 11:11:53;;;;;;;4.95;3.00;;;;;;;;;;1924818;74;21031;-45
2023/12/02 11:14:22;;;;;;;8.13;3.72;;;;;;;;;;1924717;74;21057;-45
2023/12/02 11:17:07;;;;;;;9.15;4.05;;;;;;;;;;1924659;74;21046;-45
2023/12/02 11:19:37;;;;;;;6.42;3.42;;;;;;;;;;1924913;74;21406;-45
2023/12/02 11:22:24;;;;;;;6.17;3.58;;;;;;;;;;1924620;74;21140;-45
2023/12/02 11:24:54;;;;;;;6.53;3.62;;;;;;;;;;1907162;74;21043;-46
2023/12/02 11:27:40;;;;;;;7.47;2.70;;;;;;;;;;1905008;74;21020;-45
2023/12/02 11:30:19;;;;;;;7.22;3.40;;;;;;;;;;1905433;75;20996;-45
2023/12/02 11:32:55;;;;;;;7.40;3.00;;;;;;;;;;1905294;75;20996;-45
2023/12/02 11:35:25;;;;;;;5.90;3.30;;;;;;;;;;1905365;75;21014;-45
2023/12/02 11:37:57;;;;;;;7.70;3.47;;;;;;;;;;1904970;74;21077;-44
2023/12/02 11:40:27;;;;;;;7.58;3.02;;;;;;;;;;1905330;75;21070;-45
2023/12/02 11:42:57;;;;;;;6.10;2.52;;;;;;;;;;1905234;74;21070;-44
2023/12/02 11:45:26;;;;;;;9.88;4.58;;;;;;;;;;1905216;75;21125;-45
2023/12/02 11:47:56;;;;;;;6.58;3.42;;;;;;;;;;1904120;74;21438;-45
2023/12/02 11:50:42;;;;;;;7.72;3.98;;;;;;;;;;1903850;74;21020;-45
2023/12/02 11:53:25;;;;;;;8.33;3.40;;;;;;;;;;1905228;75;21094;-45
2023/12/02 11:55:57;;;;;;;7.60;3.30;;;;;;;;;;1904883;74;21040;-45
2023/12/02 11:58:30;;;;;;;7.03;3.40;;;;;;;;;;1904848;74;21065;-45
2023/12/02 12:01:00;;;;;;;6.33;3.85;;;;;;;;;;1897315;75;21043;-45
2023/12/02 12:03:30;;;;;;;5.05;3.02;;;;;;;;;;1900142;74;21243;-48
2023/12/02 12:06:07;;;;;;;5.72;3.77;;;;;;;;;;1905241;75;21032;-44
2023/12/02 12:08:39;;;;;;;11.20;3.87;;;;;;;;;;1904774;74;21015;-44
2023/12/02 12:11:08;;;;;;;5.20;3.27;;;;;;;;;;1905120;74;21101;-45
2023/12/02 12:13:37;;;;;;;10.00;3.42;;;;;;;;;;1905230;75;21073;-46
2023/12/02 12:16:06;;;;;;;5.72;3.50;;;;;;;;;;1905174;75;21155;-45
2023/12/02 12:18:34;;;;;;;6.40;3.12;;;;;;;;;;1905209;75;21016;-45
2023/12/02 12:21:04;;;;;;;11.97;4.50;;;;;;;;;;1905220;75;21011;-45
2023/12/02 12:23:33;;;;;;;4.67;2.92;;;;;;;;;;1905175;75;21162;-45
2023/12/02 12:26:03;;;;;;;7.28;3.37;;;;;;;;;;1905248;75;21074;-45
2023/12/02 12:28:32;;;;;;;7.60;3.75;;;;;;;;;;1905235;75;21008;-45
2023/12/02 12:31:01;;;;;;;11.33;3.40;;;;;;;;;;1905265;75;21023;-45
2023/12/02 12:33:29;;;;;;;8.63;4.42;;;;;;;;;;1905267;75;21027;-45
2023/12/02 12:35:58;;;;;;;6.80;3.47;;;;;;;;;;1905408;75;21031;-45
2023/12/02 12:38:28;;;;;;;9.65;4.03;;;;;;;;;;1905189;75;21097;-45
2023/12/02 12:40:57;;;;;;;4.33;2.95;;;;;;;;;;1905149;75;21489;-45
2023/12/02 12:43:27;;;;;;;9.43;4.08;;;;;;;;;;1905269;75;21004;-45
2023/12/02 12:45:55;;;;;;;3.95;3.08;;;;;;;;;;1905355;75;21164;-45
2023/12/02 12:48:29;;;;;;;6.83;2.95;;;;;;;;;;1905465;75;21008;-45
2023/12/02 12:51:00;;;;;;;13.88;2.77;;;;;;;;;;1903785;74;21020;-45
2023/12/02 12:53:29;;;;;;;3.90;2.80;;;;;;;;;;1903521;74;21490;-45
2023/12/02 12:55:59;;;;;;;5.95;2.83;;;;;;;;;;1905235;75;21113;-45
2023/12/02 12:58:29;;;;;;;5.97;3.02;;;;;;;;;;1904858;74;21008;-45
2023/12/02 13:00:59;;;;;;;7.37;3.35;;;;;;;;;;1905200;75;21157;-45
2023/12/02 13:03:41;;;;;;;7.08;2.85;;;;;;;;;;1905253;75;21057;-46
2023/12/02 13:06:11;;;;;;;6.60;3.75;;;;;;;;;;1905192;75;21106;-45
2023/12/02 13:08:40;;;;;;;6.83;3.33;;;;;;;;;;1905251;75;21007;-45
2023/12/02 13:11:10;;;;;;;8.60;3.00;;;;;;;;;;1904636;74;21078;-45
2023/12/02 13:13:39;;;;;;;10.82;3.12;;;;;;;;;;1905343;75;21063;-44
2023/12/02 13:16:09;;;;;;;9.58;3.60;;;;;;;;;;1905318;75;21015;-45
2023/12/02 13:18:38;;;;;;;7.30;3.02;;;;;;;;;;1905566;75;21000;-45
2023/12/02 13:21:07;;;;;;;4.33;2.45;;;;;;;;;;1905442;75;21031;-45
2023/12/02 13:23:36;;;;;;;8.28;2.37;;;;;;;;;;1905285;75;21054;-44
2023/12/02 13:26:06;;;;;;;7.95;2.83;;;;;;;;;;1905301;75;20980;-45
2023/12/02 13:28:40;;;;;;;7.22;3.42;;;;;;;;;;1905310;75;21532;-45
2023/12/02 13:31:10;;;;;;;5.97;2.92;;;;;;;;;;1905808;75;21039;-45
2023/12/02 13:33:43;;;;;;;8.18;3.12;;;;;;;;;;1905318;75;21069;-44
2023/12/02 13:36:12;;;;;;;5.50;2.47;;;;;;;;;;1903690;74;21055;-45
2023/12/02 13:38:45;;;;;;;7.05;2.37;;;;;;;;;;1905340;75;21075;-45
2023/12/02 13:41:14;;;;;;;4.15;2.45;;;;;;;;;;1905103;74;20992;-45
2023/12/02 13:43:51;;;;;;;6.78;2.27;;;;;;;;;;1905268;75;21007;-45
2023/12/02 13:46:20;;;;;;;4.05;2.80;;;;;;;;;;1905293;75;20983;-45
2023/12/02 13:48:56;;;;;;;9.58;2.77;;;;;;;;;;1905254;75;21001;-44
2023/12/02 13:51:29;;;;;;;3.25;2.95;;;;;;;;;;1904661;74;21077;-44
2023/12/02 13:54:08;;;;;;;9.00;2.75;;;;;;;;;;1905276;75;21007;-45
2023/12/02 13:56:37;;;;;;;2.77;1.65;;;;;;;;;;1905306;75;21063;-45
2023/12/02 13:59:24;;;;;;;3.27;2.33;;;;;;;;;;1904736;74;21007;-45
2023/12/02 14:01:55;;;;;;;7.17;2.65;;;;;;;;;;1905163;75;21047;-44
2023/12/02 14:04:27;;;;;;;3.87;2.85;;;;;;;;;;1904071;74;21051;-45
2023/12/02 14:07:06;;;;;;;4.75;3.30;;;;;;;;;;1903930;74;21039;-44
2023/12/02 14:09:36;;;;;;;5.45;2.70;;;;;;;;;;1905195;75;21043;-45
2023/12/02 14:12:09;;;;;;;5.67;2.58;;;;;;;;;;1905168;75;21074;-44